createdAt,value
2024-01-16T00:00:00.603Z,4.12
2024-01-16T00:01:00.725Z,4.59
2024-01-16T00:02:00.665Z,4.70
2024-01-16T00:03:00.827Z,4.67
2024-01-16T00:04:00.680Z,4.25
2024-01-16T00:05:00.574Z,4.21
2024-01-16T00:06:00.580Z,4.37
2024-01-16T00:07:00.576Z,3.97
2024-01-16T00:08:00.569Z,4.01
2024-01-16T00:09:00.762Z,4.37
2024-01-16T00:10:00.514Z,4.55
2024-01-16T00:11:00.444Z,4.72
2024-01-16T00:12:00.429Z,4.72
2024-01-16T00:13:00.403Z,4.44
2024-01-16T00:14:00.482Z,4.04
2024-01-16T00:15:00.462Z,4.01
2024-01-16T00:16:00.427Z,4.19
2024-01-16T00:17:00.469Z,4.44
2024-01-16T00:18:01.909Z,4.14
2024-01-16T00:19:00.400Z,4.19
2024-01-16T00:20:00.320Z,4.42
2024-01-16T00:21:00.370Z,4.40
2024-01-16T00:22:00.325Z,4.76
2024-01-16T00:23:00.336Z,4.73
2024-01-16T00:24:00.302Z,4.58
2024-01-16T00:25:00.393Z,4.59
2024-01-16T00:26:00.296Z,4.43
2024-01-16T00:27:00.260Z,4.08
2024-01-16T00:28:00.235Z,4.32
2024-01-16T00:29:00.251Z,4.28
2024-01-16T00:30:00.334Z,4.61
2024-01-16T00:31:00.209Z,4.67
2024-01-16T00:32:00.252Z,4.32
2024-01-16T00:33:00.271Z,4.34
2024-01-16T00:34:00.277Z,4.43
2024-01-16T00:35:00.238Z,4.52
2024-01-16T00:36:00.174Z,4.44
2024-01-16T00:37:00.149Z,4.28
2024-01-16T00:38:00.373Z,3.98
2024-01-16T00:39:00.165Z,4.34
2024-01-16T00:40:00.165Z,4.51
2024-01-16T00:41:00.110Z,4.29
2024-01-16T00:42:00.085Z,4.42
2024-01-16T00:43:00.080Z,4.57
2024-01-16T00:44:00.269Z,4.79
2024-01-16T00:45:00.116Z,4.77
2024-01-16T00:46:00.065Z,4.94
2024-01-16T00:47:00.207Z,4.65
2024-01-16T00:48:00.150Z,4.72
2024-01-16T00:49:00.340Z,4.67
2024-01-16T00:50:00.102Z,4.29
2024-01-16T00:50:59.984Z,4.03
2024-01-16T00:52:00.037Z,4.19
2024-01-16T00:52:59.985Z,4.10
2024-01-16T00:53:59.952Z,4.33
2024-01-16T00:54:59.974Z,4.84
2024-01-16T00:55:59.921Z,5.04
2024-01-16T00:56:59.907Z,4.36
2024-01-16T00:57:59.899Z,4.29
2024-01-16T00:58:59.898Z,4.21
2024-01-16T00:59:59.966Z,4.33
2024-01-16T01:00:59.964Z,4.39
2024-01-16T01:01:59.851Z,4.37
2024-01-16T01:02:59.971Z,4.46
2024-01-16T01:04:00.013Z,4.47
2024-01-16T01:04:59.887Z,4.57
2024-01-16T01:05:59.892Z,4.61
2024-01-16T01:06:59.881Z,4.37
2024-01-16T01:07:59.791Z,4.50
2024-01-16T01:08:59.780Z,4.32
2024-01-16T01:09:59.778Z,4.59
2024-01-16T01:10:59.806Z,4.83
2024-01-16T01:11:59.748Z,5.01
2024-01-16T01:12:59.868Z,4.67
2024-01-16T01:14:00.194Z,4.55
2024-01-16T01:14:59.836Z,4.43
2024-01-16T01:15:59.735Z,4.34
2024-01-16T01:16:59.751Z,4.51
2024-01-16T01:18:00.032Z,4.37
2024-01-16T01:19:00.009Z,4.65
2024-01-16T01:19:59.716Z,4.80
2024-01-16T01:20:59.761Z,4.77
2024-01-16T01:21:59.730Z,4.50
2024-01-16T01:22:59.684Z,4.59
2024-01-16T01:23:59.740Z,4.50
2024-01-16T01:25:00.115Z,4.29
2024-01-16T01:25:59.670Z,4.03
2024-01-16T01:26:59.654Z,4.24
2024-01-16T01:27:59.650Z,4.58
2024-01-16T01:28:59.613Z,4.77
2024-01-16T01:29:59.671Z,4.89
2024-01-16T01:31:00.039Z,4.51
2024-01-16T01:31:59.594Z,4.33
2024-01-16T01:32:59.790Z,4.24
2024-01-16T01:33:59.689Z,4.04
2024-01-16T01:34:59.561Z,4.28
2024-01-16T01:35:59.494Z,4.43
2024-01-16T01:36:59.543Z,4.52
2024-01-16T01:37:59.543Z,4.46
2024-01-16T01:38:59.573Z,4.50
2024-01-16T01:39:59.524Z,4.51
2024-01-16T01:40:59.501Z,4.62
2024-01-16T01:41:59.547Z,4.52
2024-01-16T01:42:59.461Z,4.19
2024-01-16T01:43:59.489Z,4.57
2024-01-16T01:44:59.457Z,4.64
2024-01-16T01:45:59.431Z,4.70
2024-01-16T01:46:59.392Z,4.88
2024-01-16T01:47:59.621Z,4.52
2024-01-16T01:48:59.466Z,4.44
2024-01-16T01:49:59.365Z,4.43
2024-01-16T01:50:59.429Z,4.36
2024-01-16T01:51:59.374Z,4.52
2024-01-16T01:52:59.330Z,4.42
2024-01-16T01:53:59.652Z,4.46
2024-01-16T01:54:59.327Z,4.64
2024-01-16T01:55:59.347Z,4.55
2024-01-16T01:56:59.273Z,4.01
2024-01-16T01:57:59.262Z,4.26
2024-01-16T01:58:59.360Z,4.51
2024-01-16T01:59:59.294Z,4.25
2024-01-16T02:00:59.271Z,4.32
2024-01-16T02:01:59.232Z,4.65
2024-01-16T02:02:59.262Z,4.47
2024-01-16T02:03:59.210Z,4.33
2024-01-16T02:04:59.289Z,4.64
2024-01-16T02:05:59.360Z,4.89
2024-01-16T02:06:59.140Z,4.64
2024-01-16T02:07:59.166Z,4.92
2024-01-16T02:08:59.121Z,5.05
2024-01-16T02:09:59.182Z,4.91
2024-01-16T02:10:59.167Z,4.70
2024-01-16T02:11:59.126Z,4.73
2024-01-16T02:12:59.139Z,4.37
2024-01-16T02:13:59.165Z,4.83
2024-01-16T02:14:59.089Z,4.57
2024-01-16T02:15:59.114Z,4.84
2024-01-16T02:16:59.059Z,4.55
2024-01-16T02:17:59.139Z,4.54
2024-01-16T02:18:59.076Z,4.14
2024-01-16T02:19:59.059Z,4.28
2024-01-16T02:20:59.006Z,4.32
2024-01-16T02:21:59.056Z,4.52
2024-01-16T02:22:59.020Z,4.58
2024-01-16T02:23:59.033Z,4.54
2024-01-16T02:24:59.033Z,4.88
2024-01-16T02:25:59.044Z,4.98
2024-01-16T02:26:58.982Z,4.79
2024-01-16T02:27:58.982Z,5.02
2024-01-16T02:28:58.949Z,4.58
2024-01-16T02:29:58.903Z,4.57
2024-01-16T02:30:58.921Z,4.54
2024-01-16T02:31:58.893Z,4.92
2024-01-16T02:32:58.988Z,5.27
2024-01-16T02:33:58.941Z,4.86
2024-01-16T02:34:58.893Z,4.94
2024-01-16T02:35:58.907Z,5.20
2024-01-16T02:36:58.894Z,5.30
2024-01-16T02:37:58.937Z,4.73
2024-01-16T02:38:58.865Z,4.94
2024-01-16T02:39:58.778Z,5.30
2024-01-16T02:40:58.876Z,4.99
2024-01-16T02:41:58.843Z,4.83
2024-01-16T02:42:58.895Z,4.70
2024-01-16T02:43:58.907Z,4.88
2024-01-16T02:44:58.883Z,4.65
2024-01-16T02:45:58.796Z,4.67
2024-01-16T02:46:58.704Z,4.43
2024-01-16T02:47:58.849Z,4.55
2024-01-16T02:48:58.825Z,4.59
2024-01-16T02:49:58.739Z,4.72
2024-01-16T02:50:58.714Z,4.69
2024-01-16T02:51:58.703Z,4.84
2024-01-16T02:52:58.870Z,5.05
2024-01-16T02:53:58.658Z,4.95
2024-01-16T02:54:58.645Z,5.30
2024-01-16T02:55:58.684Z,5.49
2024-01-16T02:56:58.630Z,5.40
2024-01-16T02:57:58.705Z,5.35
2024-01-16T02:58:58.627Z,5.32
2024-01-16T02:59:58.641Z,5.30
2024-01-16T03:00:58.546Z,5.20
2024-01-16T03:02:00.002Z,5.12
2024-01-16T03:02:58.640Z,5.27
2024-01-16T03:03:58.585Z,4.96
2024-01-16T03:04:58.673Z,4.75
2024-01-16T03:05:59.483Z,4.61
2024-01-16T03:06:58.568Z,4.73
2024-01-16T03:07:58.485Z,5.09
2024-01-16T03:08:58.595Z,5.32
2024-01-16T03:09:58.526Z,5.19
2024-01-16T03:10:58.490Z,5.14
2024-01-16T03:11:58.517Z,5.30
2024-01-16T03:12:58.473Z,5.56
2024-01-16T03:13:58.404Z,5.34
2024-01-16T03:14:58.524Z,5.31
2024-01-16T03:15:58.475Z,5.27
2024-01-16T03:16:58.436Z,5.10
2024-01-16T03:17:58.454Z,5.09
2024-01-16T03:18:58.477Z,4.91
2024-01-16T03:19:58.392Z,4.55
2024-01-16T03:20:58.423Z,4.86
2024-01-16T03:21:58.353Z,5.05
2024-01-16T03:22:58.321Z,5.10
2024-01-16T03:23:58.383Z,4.88
2024-01-16T03:24:58.280Z,4.70
2024-01-16T03:25:58.384Z,4.70
2024-01-16T03:26:58.298Z,4.95
2024-01-16T03:27:58.286Z,4.92
2024-01-16T03:28:58.265Z,5.02
2024-01-16T03:29:58.313Z,5.23
2024-01-16T03:30:58.327Z,5.09
2024-01-16T03:31:58.225Z,5.01
2024-01-16T03:32:58.337Z,4.92
2024-01-16T03:33:58.316Z,5.02
2024-01-16T03:34:58.130Z,4.80
2024-01-16T03:35:58.191Z,4.88
2024-01-16T03:36:58.169Z,4.34
2024-01-16T03:37:58.208Z,4.52
2024-01-16T03:38:58.133Z,4.65
2024-01-16T03:39:58.157Z,4.89
2024-01-16T03:40:58.153Z,4.96
2024-01-16T03:41:58.132Z,5.01
2024-01-16T03:42:58.071Z,4.96
2024-01-16T03:43:58.121Z,4.83
2024-01-16T03:44:58.161Z,4.91
2024-01-16T03:45:58.078Z,4.92
2024-01-16T03:46:58.037Z,4.92
2024-01-16T03:47:58.236Z,5.09
2024-01-16T03:48:58.085Z,4.98
2024-01-16T03:49:58.034Z,5.09
2024-01-16T03:50:58.174Z,5.04
2024-01-16T03:51:58.039Z,4.91
2024-01-16T03:52:57.963Z,4.64
2024-01-16T03:53:57.914Z,4.59
2024-01-16T03:54:57.890Z,4.55
2024-01-16T03:55:57.952Z,4.65
2024-01-16T03:56:57.878Z,4.64
2024-01-16T03:57:57.891Z,4.91
2024-01-16T03:58:57.872Z,4.55
2024-01-16T03:59:57.854Z,4.58
2024-01-16T04:00:57.899Z,4.47
2024-01-16T04:01:57.874Z,4.58
2024-01-16T04:02:57.931Z,4.50
2024-01-16T04:03:57.861Z,4.26
2024-01-16T04:04:57.803Z,4.36
2024-01-16T04:05:57.949Z,4.50
2024-01-16T04:06:57.758Z,4.51
2024-01-16T04:07:57.933Z,4.51
2024-01-16T04:08:57.742Z,4.39
2024-01-16T04:09:57.732Z,4.39
2024-01-16T04:10:57.764Z,4.73
2024-01-16T04:11:57.743Z,4.69
2024-01-16T04:12:57.691Z,4.51
2024-01-16T04:13:57.807Z,4.43
2024-01-16T04:14:57.678Z,4.54
2024-01-16T04:15:57.665Z,4.55
2024-01-16T04:16:57.677Z,4.59
2024-01-16T04:17:57.841Z,4.36
2024-01-16T04:18:57.719Z,4.55
2024-01-16T04:19:57.682Z,4.62
2024-01-16T04:20:57.674Z,4.40
2024-01-16T04:21:57.609Z,4.36
2024-01-16T04:22:57.597Z,4.55
2024-01-16T04:23:57.585Z,4.42
2024-01-16T04:24:57.670Z,4.18
2024-01-16T04:25:57.685Z,4.32
2024-01-16T04:26:57.773Z,4.58
2024-01-16T04:27:58.917Z,4.40
2024-01-16T04:28:57.537Z,4.55
2024-01-16T04:29:57.493Z,4.37
2024-01-16T04:30:57.626Z,4.52
2024-01-16T04:31:57.493Z,4.36
2024-01-16T04:32:57.627Z,4.40
2024-01-16T04:33:57.548Z,3.97
2024-01-16T04:34:57.456Z,4.14
2024-01-16T04:35:57.511Z,4.40
2024-01-16T04:36:57.476Z,4.44
2024-01-16T04:37:57.425Z,4.61
2024-01-16T04:38:59.999Z,4.61
2024-01-16T04:39:57.406Z,4.46
2024-01-16T04:40:57.411Z,4.58
2024-01-16T04:41:57.360Z,4.75
2024-01-16T04:42:57.587Z,5.10
2024-01-16T04:43:57.365Z,4.88
2024-01-16T04:44:57.344Z,5.02
2024-01-16T04:45:58.658Z,5.28
2024-01-16T04:46:57.306Z,4.96
2024-01-16T04:47:57.401Z,4.54
2024-01-16T04:48:57.474Z,4.61
2024-01-16T04:49:57.308Z,4.96
2024-01-16T04:50:57.351Z,4.80
2024-01-16T04:51:57.295Z,4.72
2024-01-16T04:52:57.241Z,4.83
2024-01-16T04:53:57.263Z,4.76
2024-01-16T04:54:57.287Z,4.88
2024-01-16T04:55:57.246Z,4.86
2024-01-16T04:56:57.209Z,4.80
2024-01-16T04:57:57.220Z,4.79
2024-01-16T04:58:57.168Z,4.75
2024-01-16T04:59:57.222Z,4.75
2024-01-16T05:00:57.223Z,4.83
2024-01-16T05:01:57.159Z,4.80
2024-01-16T05:02:57.189Z,4.76
2024-01-16T05:03:57.246Z,4.72
2024-01-16T05:04:57.178Z,4.40
2024-01-16T05:05:57.222Z,4.72
2024-01-16T05:06:57.083Z,4.77
2024-01-16T05:07:57.109Z,4.57
2024-01-16T05:08:57.090Z,4.43
2024-01-16T05:09:57.064Z,4.65
2024-01-16T05:10:57.033Z,4.69
2024-01-16T05:11:57.082Z,4.79
2024-01-16T05:12:57.024Z,4.40
2024-01-16T05:13:57.001Z,4.37
2024-01-16T05:14:57.015Z,4.51
2024-01-16T05:15:57.010Z,4.64
2024-01-16T05:16:56.970Z,4.57
2024-01-16T05:17:57.070Z,4.59
2024-01-16T05:18:57.021Z,4.40
2024-01-16T05:19:56.943Z,4.06
2024-01-16T05:20:57.586Z,4.34
2024-01-16T05:21:56.928Z,4.36
2024-01-16T05:22:56.908Z,4.62
2024-01-16T05:23:56.930Z,4.24
2024-01-16T05:24:56.995Z,4.28
2024-01-16T05:25:56.957Z,4.24
2024-01-16T05:26:56.909Z,4.33
2024-01-16T05:27:56.867Z,4.43
2024-01-16T05:28:56.883Z,4.42
2024-01-16T05:29:56.983Z,4.43
2024-01-16T05:30:56.970Z,4.16
2024-01-16T05:31:56.899Z,3.82
2024-01-16T05:32:56.897Z,3.89
2024-01-16T05:33:56.898Z,4.01
2024-01-16T05:34:56.762Z,4.19
2024-01-16T05:35:56.826Z,3.67
2024-01-16T05:36:56.803Z,3.49
2024-01-16T05:37:56.780Z,4.00
2024-01-16T05:38:56.931Z,4.14
2024-01-16T05:39:56.812Z,3.70
2024-01-16T05:40:56.802Z,3.85
2024-01-16T05:41:57.641Z,3.86
2024-01-16T05:42:56.759Z,3.75
2024-01-16T05:43:56.917Z,4.04
2024-01-16T05:44:56.914Z,4.36
2024-01-16T05:45:56.712Z,4.34
2024-01-16T05:46:56.679Z,4.15
2024-01-16T05:47:56.789Z,4.19
2024-01-16T05:48:56.706Z,4.57
2024-01-16T05:49:56.793Z,4.46
2024-01-16T05:50:56.668Z,4.33
2024-01-16T05:51:56.622Z,4.40
2024-01-16T05:52:56.745Z,4.61
2024-01-16T05:53:56.632Z,4.58
2024-01-16T05:54:56.621Z,4.65
2024-01-16T05:55:56.614Z,4.47
2024-01-16T05:56:56.680Z,4.06
2024-01-16T05:57:56.613Z,3.97
2024-01-16T05:58:56.660Z,4.03
2024-01-16T05:59:56.566Z,4.04
2024-01-16T06:00:56.567Z,4.18
2024-01-16T06:01:56.609Z,4.16
2024-01-16T06:02:56.554Z,4.36
2024-01-16T06:03:56.521Z,4.37
2024-01-16T06:04:56.569Z,4.67
2024-01-16T06:05:56.747Z,4.43
2024-01-16T06:06:56.478Z,4.44
2024-01-16T06:07:56.460Z,4.47
2024-01-16T06:08:57.275Z,4.69
2024-01-16T06:09:56.408Z,4.98
2024-01-16T06:10:56.537Z,4.76
2024-01-16T06:11:56.497Z,4.65
2024-01-16T06:12:56.399Z,4.84
2024-01-16T06:13:56.385Z,4.99
2024-01-16T06:14:56.448Z,4.67
2024-01-16T06:15:56.345Z,4.61
2024-01-16T06:16:56.348Z,4.44
2024-01-16T06:17:56.515Z,4.40
2024-01-16T06:18:56.379Z,4.22
2024-01-16T06:19:56.392Z,4.19
2024-01-16T06:20:56.440Z,4.37
2024-01-16T06:21:56.268Z,4.16
2024-01-16T06:22:56.255Z,4.57
2024-01-16T06:23:56.404Z,4.58
2024-01-16T06:24:56.257Z,3.94
2024-01-16T06:25:56.298Z,4.04
2024-01-16T06:26:56.281Z,4.08
2024-01-16T06:27:56.274Z,4.25
2024-01-16T06:28:56.266Z,4.42
2024-01-16T06:29:56.448Z,4.37
2024-01-16T06:30:56.408Z,4.04
2024-01-16T06:31:56.271Z,4.00
2024-01-16T06:32:56.349Z,3.97
2024-01-16T06:33:56.402Z,4.16
2024-01-16T06:34:56.221Z,3.88
2024-01-16T06:35:56.294Z,3.65
2024-01-16T06:36:56.255Z,3.79
2024-01-16T06:37:56.151Z,3.75
2024-01-16T06:38:56.279Z,3.75
2024-01-16T06:39:56.243Z,3.50
2024-01-16T06:40:56.084Z,3.90
2024-01-16T06:41:56.095Z,4.04
2024-01-16T06:42:56.053Z,3.78
2024-01-16T06:43:56.117Z,3.42
2024-01-16T06:44:56.110Z,3.61
2024-01-16T06:45:56.151Z,3.46
2024-01-16T06:46:56.064Z,3.36
2024-01-16T06:47:56.214Z,3.60
2024-01-16T06:48:56.083Z,3.79
2024-01-16T06:49:55.941Z,3.49
2024-01-16T06:50:56.065Z,3.85
2024-01-16T06:51:56.066Z,3.86
2024-01-16T06:52:55.959Z,3.75
2024-01-16T06:53:55.997Z,3.71
2024-01-16T06:54:55.937Z,3.49
2024-01-16T06:55:55.911Z,3.53
2024-01-16T06:56:55.996Z,3.71
2024-01-16T06:57:55.928Z,3.78
2024-01-16T06:58:55.919Z,3.86
2024-01-16T06:59:56.112Z,3.65
2024-01-16T07:00:55.901Z,3.33
2024-01-16T07:01:55.847Z,3.60
2024-01-16T07:02:55.947Z,3.58
2024-01-16T07:03:55.910Z,3.65
2024-01-16T07:04:57.633Z,3.65
2024-01-16T07:05:55.917Z,3.65
2024-01-16T07:06:55.849Z,3.85
2024-01-16T07:07:55.823Z,3.82
2024-01-16T07:08:56.698Z,3.92
2024-01-16T07:09:55.809Z,3.89
2024-01-16T07:10:55.827Z,3.92
2024-01-16T07:11:55.867Z,3.79
2024-01-16T07:12:55.766Z,3.76
2024-01-16T07:13:55.718Z,3.58
2024-01-16T07:14:55.731Z,3.42
2024-01-16T07:15:55.662Z,3.49
2024-01-16T07:16:55.644Z,3.57
2024-01-16T07:17:55.810Z,3.50
2024-01-16T07:18:55.739Z,3.61
2024-01-16T07:19:55.768Z,3.61
2024-01-16T07:20:55.874Z,3.52
2024-01-16T07:21:55.581Z,3.57
2024-01-16T07:22:55.650Z,3.39
2024-01-16T07:23:55.617Z,3.39
2024-01-16T07:24:55.616Z,3.27
2024-01-16T07:25:55.543Z,3.30
2024-01-16T07:26:55.682Z,3.44
2024-01-16T07:27:55.551Z,3.61
2024-01-16T07:28:55.527Z,3.44
2024-01-16T07:29:55.597Z,3.33
2024-01-16T07:30:55.609Z,3.24
2024-01-16T07:31:55.521Z,3.24
2024-01-16T07:32:55.714Z,3.21
2024-01-16T07:33:55.641Z,3.30
2024-01-16T07:34:55.528Z,3.43
2024-01-16T07:35:55.476Z,3.43
2024-01-16T07:36:55.434Z,3.15
2024-01-16T07:37:55.520Z,3.05
2024-01-16T07:38:55.506Z,3.16
2024-01-16T07:39:55.388Z,3.44
2024-01-16T07:40:55.376Z,3.44
2024-01-16T07:41:55.435Z,3.25
2024-01-16T07:42:55.374Z,3.50
2024-01-16T07:43:55.365Z,3.46
2024-01-16T07:44:55.418Z,3.64
2024-01-16T07:45:55.345Z,3.40
2024-01-16T07:46:55.296Z,3.33
2024-01-16T07:47:55.393Z,3.57
2024-01-16T07:48:55.411Z,3.79
2024-01-16T07:49:55.351Z,3.94
2024-01-16T07:50:55.414Z,3.68
2024-01-16T07:51:55.297Z,3.85
2024-01-16T07:52:55.268Z,4.04
2024-01-16T07:53:55.294Z,3.80
2024-01-16T07:54:55.244Z,3.98
2024-01-16T07:55:55.290Z,4.01
2024-01-16T07:56:55.277Z,4.01
2024-01-16T07:57:55.306Z,4.26
2024-01-16T07:58:55.191Z,4.12
2024-01-16T07:59:55.291Z,4.24
2024-01-16T08:00:55.212Z,3.86
2024-01-16T08:01:55.177Z,3.80
2024-01-16T08:02:55.261Z,3.52
2024-01-16T08:03:55.193Z,3.67
2024-01-16T08:04:55.096Z,3.33
2024-01-16T08:05:55.196Z,3.49
2024-01-16T08:06:56.061Z,3.72
2024-01-16T08:07:55.124Z,3.62
2024-01-16T08:08:55.131Z,3.75
2024-01-16T08:09:55.224Z,3.89
2024-01-16T08:10:55.110Z,3.75
2024-01-16T08:11:55.100Z,3.80
2024-01-16T08:12:55.089Z,3.75
2024-01-16T08:13:54.979Z,3.60
2024-01-16T08:14:55.093Z,3.67
2024-01-16T08:15:55.050Z,3.75
2024-01-16T08:16:54.968Z,3.60
2024-01-16T08:17:55.183Z,3.61
2024-01-16T08:18:55.121Z,3.68
2024-01-16T08:19:54.995Z,3.90
2024-01-16T08:20:55.031Z,3.80
2024-01-16T08:21:54.972Z,3.96
2024-01-16T08:22:55.044Z,4.04
2024-01-16T08:23:55.072Z,4.26
2024-01-16T08:24:55.083Z,4.39
2024-01-16T08:25:54.916Z,4.32
2024-01-16T08:26:54.927Z,4.16
2024-01-16T08:27:54.966Z,4.28
2024-01-16T08:28:54.904Z,4.25
2024-01-16T08:29:54.976Z,4.00
2024-01-16T08:30:54.972Z,4.18
2024-01-16T08:31:55.103Z,4.12
2024-01-16T08:32:54.895Z,4.22
2024-01-16T08:33:55.073Z,4.40
2024-01-16T08:34:54.919Z,4.10
2024-01-16T08:35:54.867Z,4.33
2024-01-16T08:36:54.865Z,4.52
2024-01-16T08:37:54.795Z,4.61
2024-01-16T08:38:54.833Z,4.50
2024-01-16T08:39:54.794Z,4.44
2024-01-16T08:40:54.731Z,4.07
2024-01-16T08:41:54.836Z,4.26
2024-01-16T08:42:57.744Z,4.50
2024-01-16T08:43:54.679Z,4.72
2024-01-16T08:44:54.735Z,4.61
2024-01-16T08:45:54.766Z,4.42
2024-01-16T08:46:54.684Z,4.62
2024-01-16T08:47:54.853Z,4.75
2024-01-16T08:48:54.777Z,4.89
2024-01-16T08:49:54.668Z,4.55
2024-01-16T08:50:54.718Z,4.50
2024-01-16T08:51:54.765Z,4.37
2024-01-16T08:52:54.605Z,4.50
2024-01-16T08:53:54.778Z,4.47
2024-01-16T08:54:54.610Z,4.22
2024-01-16T08:55:54.600Z,4.44
2024-01-16T08:56:54.644Z,4.61
2024-01-16T08:57:54.540Z,4.84
2024-01-16T08:58:54.600Z,4.75
2024-01-16T08:59:54.750Z,4.46
2024-01-16T09:00:54.565Z,4.55
2024-01-16T09:01:54.862Z,4.59
2024-01-16T09:02:54.569Z,4.88
2024-01-16T09:03:54.581Z,5.16
2024-01-16T09:04:54.565Z,5.16
2024-01-16T09:05:54.696Z,5.31
2024-01-16T09:06:54.558Z,5.32
2024-01-16T09:07:54.393Z,4.75
2024-01-16T09:08:54.441Z,5.04
2024-01-16T09:09:54.401Z,5.13
2024-01-16T09:10:54.371Z,5.10
2024-01-16T09:11:54.359Z,4.94
2024-01-16T09:12:54.427Z,4.89
2024-01-16T09:13:54.311Z,4.94
2024-01-16T09:14:54.400Z,4.80
2024-01-16T09:15:54.330Z,4.94
2024-01-16T09:16:54.311Z,4.86
2024-01-16T09:17:54.397Z,4.73
2024-01-16T09:18:54.413Z,4.52
2024-01-16T09:19:54.283Z,4.55
2024-01-16T09:20:54.334Z,4.64
2024-01-16T09:21:54.277Z,4.84
2024-01-16T09:22:54.273Z,4.39
2024-01-16T09:23:54.389Z,4.34
2024-01-16T09:24:54.208Z,4.54
2024-01-16T09:25:54.220Z,4.67
2024-01-16T09:26:54.300Z,4.72
2024-01-16T09:27:54.184Z,5.04
2024-01-16T09:28:54.210Z,5.23
2024-01-16T09:29:54.191Z,5.31
2024-01-16T09:30:54.157Z,4.98
2024-01-16T09:31:54.112Z,4.86
2024-01-16T09:32:54.197Z,4.84
2024-01-16T09:33:54.272Z,4.72
2024-01-16T09:34:54.164Z,4.51
2024-01-16T09:35:54.250Z,4.42
2024-01-16T09:36:54.072Z,4.37
2024-01-16T09:37:54.045Z,4.14
2024-01-16T09:38:54.125Z,4.43
2024-01-16T09:39:54.083Z,4.52
2024-01-16T09:40:54.079Z,4.72
2024-01-16T09:41:54.044Z,4.84
2024-01-16T09:42:54.005Z,4.89
2024-01-16T09:43:53.972Z,4.84
2024-01-16T09:44:54.082Z,4.84
2024-01-16T09:45:53.967Z,4.83
2024-01-16T09:46:54.002Z,4.96
2024-01-16T09:47:54.868Z,5.02
2024-01-16T09:48:54.031Z,5.23
2024-01-16T09:49:53.900Z,5.22
2024-01-16T09:50:54.068Z,5.10
2024-01-16T09:51:54.044Z,5.05
2024-01-16T09:52:55.079Z,5.13
2024-01-16T09:53:54.060Z,4.43
2024-01-16T09:54:53.927Z,3.88
2024-01-16T09:55:53.923Z,4.03
2024-01-16T09:56:53.996Z,4.26
2024-01-16T09:57:53.878Z,4.58
2024-01-16T09:58:53.849Z,4.37
2024-01-16T09:59:53.989Z,4.14
2024-01-16T10:00:53.937Z,4.16
2024-01-16T10:01:53.830Z,4.46
2024-01-16T10:02:53.901Z,4.39
2024-01-16T10:03:54.198Z,4.57
2024-01-16T10:04:53.802Z,4.64
2024-01-16T10:05:53.880Z,4.91
2024-01-16T10:06:53.886Z,4.98
2024-01-16T10:07:53.779Z,5.12
2024-01-16T10:08:53.842Z,4.95
2024-01-16T10:09:53.775Z,4.77
2024-01-16T10:10:53.796Z,4.32
2024-01-16T10:11:53.926Z,4.33
2024-01-16T10:12:53.766Z,4.44
2024-01-16T10:13:53.702Z,4.37
2024-01-16T10:14:53.783Z,4.24
2024-01-16T10:15:53.802Z,4.28
2024-01-16T10:16:53.634Z,4.42
2024-01-16T10:17:53.786Z,4.70
2024-01-16T10:18:53.746Z,4.57
2024-01-16T10:19:53.724Z,4.61
2024-01-16T10:20:53.711Z,4.57
2024-01-16T10:21:53.625Z,4.88
2024-01-16T10:22:53.618Z,4.89
2024-01-16T10:23:53.750Z,4.76
2024-01-16T10:24:53.558Z,4.79
2024-01-16T10:25:53.546Z,4.70
2024-01-16T10:26:53.680Z,4.73
2024-01-16T10:27:53.498Z,4.72
2024-01-16T10:28:53.568Z,4.73
2024-01-16T10:29:53.736Z,4.55
2024-01-16T10:30:53.630Z,4.55
2024-01-16T10:31:53.646Z,4.54
2024-01-16T10:32:53.568Z,4.65
2024-01-16T10:33:53.595Z,4.95
2024-01-16T10:34:53.462Z,5.20
2024-01-16T10:35:53.417Z,5.22
2024-01-16T10:36:53.386Z,5.13
2024-01-16T10:37:53.417Z,4.76
2024-01-16T10:38:53.444Z,4.77
2024-01-16T10:39:53.342Z,4.84
2024-01-16T10:40:53.380Z,4.96
2024-01-16T10:41:53.367Z,4.89
2024-01-16T10:42:53.307Z,5.01
2024-01-16T10:43:53.362Z,4.79
2024-01-16T10:44:53.298Z,4.73
2024-01-16T10:45:53.359Z,5.27
2024-01-16T10:46:53.292Z,5.01
2024-01-16T10:47:53.339Z,5.17
2024-01-16T10:48:53.256Z,5.17
2024-01-16T10:49:53.596Z,5.13
2024-01-16T10:50:53.313Z,5.01
2024-01-16T10:51:53.229Z,4.96
2024-01-16T10:52:53.208Z,5.34
2024-01-16T10:53:53.285Z,5.56
2024-01-16T10:54:53.198Z,5.75
2024-01-16T10:55:53.340Z,5.91
2024-01-16T10:56:53.187Z,6.13
2024-01-16T10:57:53.146Z,5.95
2024-01-16T10:58:53.120Z,6.06
2024-01-16T10:59:53.154Z,6.33
2024-01-16T11:00:53.180Z,5.86
2024-01-16T11:01:53.145Z,6.11
2024-01-16T11:02:53.459Z,6.22
2024-01-16T11:03:53.524Z,6.22
2024-01-16T11:04:53.191Z,6.53
2024-01-16T11:05:53.207Z,6.61
2024-01-16T11:06:53.321Z,6.71
2024-01-16T11:07:53.148Z,6.68
2024-01-16T11:08:53.222Z,6.50
2024-01-16T11:09:53.080Z,6.43
2024-01-16T11:10:53.059Z,6.28
2024-01-16T11:11:53.115Z,6.21
2024-01-16T11:12:53.009Z,6.47
2024-01-16T11:13:53.023Z,6.22
2024-01-16T11:14:53.137Z,6.11
2024-01-16T11:15:52.933Z,5.85
2024-01-16T11:16:52.942Z,6.13
2024-01-16T11:17:52.997Z,6.22
2024-01-16T11:18:52.997Z,6.13
2024-01-16T11:20:07.351Z,5.91
2024-01-16T11:21:04.575Z,5.73
2024-01-16T11:21:53.973Z,6.18
2024-01-16T11:22:52.916Z,6.29
2024-01-16T11:23:53.074Z,6.21
2024-01-16T11:24:52.845Z,5.92
2024-01-16T11:25:52.859Z,5.81
2024-01-16T11:26:52.879Z,5.77
2024-01-16T11:27:52.796Z,5.74
2024-01-16T11:28:52.776Z,5.52
2024-01-16T11:29:52.886Z,5.77
2024-01-16T11:30:52.893Z,5.88
2024-01-16T11:32:01.121Z,6.01
2024-01-16T11:32:54.104Z,5.78
2024-01-16T11:33:52.833Z,5.45
2024-01-16T11:34:52.825Z,5.83
2024-01-16T11:35:52.784Z,6.19
2024-01-16T11:36:52.814Z,6.00
2024-01-16T11:37:52.687Z,5.77
2024-01-16T11:38:52.763Z,5.75
2024-01-16T11:39:52.693Z,6.06
2024-01-16T11:40:52.750Z,6.11
2024-01-16T11:41:52.906Z,6.21
2024-01-16T11:42:52.712Z,5.95
2024-01-16T11:43:52.658Z,6.35
2024-01-16T11:44:52.689Z,6.56
2024-01-16T11:45:53.475Z,6.32
2024-01-16T11:46:52.583Z,6.04
2024-01-16T11:47:52.644Z,6.06
2024-01-16T11:48:52.694Z,5.93
2024-01-16T11:49:52.598Z,5.96
2024-01-16T11:50:52.616Z,6.22
2024-01-16T11:51:52.582Z,6.50
2024-01-16T11:52:52.537Z,6.48
2024-01-16T11:53:52.558Z,6.48
2024-01-16T11:54:52.499Z,6.66
2024-01-16T11:55:52.715Z,6.94
2024-01-16T11:56:52.650Z,6.97
2024-01-16T11:57:52.467Z,6.59
2024-01-16T11:58:52.452Z,6.41
2024-01-16T11:59:52.479Z,6.26
2024-01-16T12:00:52.536Z,6.18
2024-01-16T12:01:52.468Z,6.61
2024-01-16T12:02:52.665Z,6.51
2024-01-16T12:03:52.400Z,6.62
2024-01-16T12:04:52.443Z,7.04
2024-01-16T12:05:52.601Z,7.22
2024-01-16T12:06:52.505Z,7.13
2024-01-16T12:07:52.500Z,7.15
2024-01-16T12:08:52.405Z,6.62
2024-01-16T12:09:52.422Z,6.25
2024-01-16T12:10:52.356Z,6.16
2024-01-16T12:11:52.399Z,6.41
2024-01-16T12:12:52.402Z,6.65
2024-01-16T12:13:52.322Z,7.13
2024-01-16T12:14:52.408Z,6.50
2024-01-16T12:15:52.318Z,6.68
2024-01-16T12:16:52.306Z,6.59
2024-01-16T12:17:52.423Z,5.96
2024-01-16T12:18:52.409Z,6.16
2024-01-16T12:19:52.329Z,6.66
2024-01-16T12:20:52.309Z,6.44
2024-01-16T12:21:52.235Z,6.18
2024-01-16T12:22:52.189Z,5.85
2024-01-16T12:24:00.181Z,6.16
2024-01-16T12:24:53.223Z,6.19
2024-01-16T12:26:01.888Z,6.48
2024-01-16T12:26:53.215Z,6.59
2024-01-16T12:27:52.115Z,6.66
2024-01-16T12:28:52.105Z,6.65
2024-01-16T12:29:52.196Z,6.06
2024-01-16T12:30:52.331Z,6.35
2024-01-16T12:31:52.200Z,6.13
2024-01-16T12:32:58.749Z,6.06
2024-01-16T12:34:01.462Z,6.28
2024-01-16T12:34:53.183Z,6.19
2024-01-16T12:35:52.172Z,6.48
2024-01-16T12:36:52.151Z,6.53
2024-01-16T12:37:52.090Z,6.69
2024-01-16T12:38:52.095Z,6.90
2024-01-16T12:39:52.046Z,7.07
2024-01-16T12:40:51.985Z,7.22
2024-01-16T12:41:52.036Z,7.04
2024-01-16T12:42:52.025Z,6.51
2024-01-16T12:44:00.640Z,6.54
2024-01-16T12:44:53.037Z,5.73
2024-01-16T12:45:51.973Z,5.53
2024-01-16T12:46:51.919Z,5.57
2024-01-16T12:47:54.471Z,5.77
2024-01-16T12:49:00.311Z,5.82
2024-01-16T12:49:52.953Z,5.93
2024-01-16T12:50:52.050Z,6.21
2024-01-16T12:51:51.901Z,6.58
2024-01-16T12:52:51.904Z,6.84
2024-01-16T12:53:51.958Z,6.81
2024-01-16T12:54:52.055Z,6.69
2024-01-16T12:55:51.873Z,6.76
2024-01-16T12:56:51.964Z,6.68
2024-01-16T12:57:51.853Z,6.21
2024-01-16T12:58:51.877Z,5.88
2024-01-16T12:59:52.073Z,6.25
2024-01-16T13:00:51.897Z,6.40
2024-01-16T13:01:51.848Z,6.28
2024-01-16T13:02:52.017Z,6.32
2024-01-16T13:03:51.864Z,6.58
2024-01-16T13:04:51.873Z,6.07
2024-01-16T13:05:51.956Z,6.00
2024-01-16T13:06:51.971Z,6.07
2024-01-16T13:07:51.830Z,5.70
2024-01-16T13:08:51.919Z,5.41
2024-01-16T13:09:51.705Z,5.37
2024-01-16T13:10:51.772Z,5.66
2024-01-16T13:11:51.827Z,5.83
2024-01-16T13:12:51.755Z,5.88
2024-01-16T13:13:51.773Z,5.91
2024-01-16T13:14:51.801Z,6.26
2024-01-16T13:15:51.745Z,6.29
2024-01-16T13:16:51.703Z,6.07
2024-01-16T13:17:51.733Z,6.35